Time;durP1;ratioP1;P1;durP2;ratioP2;P2;SDS_P1;SDS_P2;PMS_P1;PMS_P2;Temp;Humidity;BMP_temperature;BMP_pressure;BME280_temperature;BME280_humidity;BME280_pressure;Samples;Min_cycle;Max_cycle;Signal;HPM_P1;HPM_P2
2023/12/03 00:00:48;;;;;;;47.97;23.63;;;;;;;-0.60;100.00;101718.00;5087835;28;20135;-47
2023/12/03 00:03:17;;;;;;;48.72;22.50;;;;;;;-0.61;100.00;101719.75;5088992;28;20048;-48
2023/12/03 00:05:45;;;;;;;49.58;23.40;;;;;;;-0.60;100.00;101713.72;5088632;28;20098;-47
2023/12/03 00:08:13;;;;;;;51.95;22.92;;;;;;;-0.58;100.00;101724.06;5087896;28;20040;-46
2023/12/03 00:10:42;;;;;;;45.47;23.20;;;;;;;-0.55;100.00;101716.28;5084819;28;20052;-46
2023/12/03 00:13:11;;;;;;;46.15;23.35;;;;;;;-0.54;100.00;101721.44;5085437;28;20054;-46
2023/12/03 00:15:40;;;;;;;44.80;22.35;;;;;;;-0.53;100.00;101717.97;5088608;28;20072;-46
2023/12/03 00:18:08;;;;;;;48.97;23.70;;;;;;;-0.53;100.00;101712.81;5088537;28;20526;-46
2023/12/03 00:20:36;;;;;;;50.13;22.98;;;;;;;-0.48;100.00;101715.38;5088415;28;20097;-45
2023/12/03 00:23:07;;;;;;;52.47;24.05;;;;;;;-0.56;100.00;101707.66;5088473;28;20575;-47
2023/12/03 00:25:35;;;;;;;50.22;23.77;;;;;;;-0.56;100.00;101706.78;5087935;28;20080;-47
2023/12/03 00:28:03;;;;;;;53.22;24.10;;;;;;;-0.57;100.00;101708.53;5088194;28;20051;-46
2023/12/03 00:30:33;;;;;;;52.30;22.80;;;;;;;-0.57;100.00;101711.13;5085687;28;20036;-47
2023/12/03 00:33:01;;;;;;;54.47;24.33;;;;;;;-0.53;100.00;101709.38;5085618;28;20040;-47
2023/12/03 00:35:32;;;;;;;49.80;23.42;;;;;;;-0.54;100.00;101713.69;5084923;28;20052;-47
2023/12/03 00:38:00;;;;;;;53.15;24.15;;;;;;;-0.55;100.00;101713.69;5086241;28;20046;-47
2023/12/03 00:40:28;;;;;;;56.30;24.65;;;;;;;-0.55;100.00;101717.13;5087699;28;20074;-48
2023/12/03 00:42:56;;;;;;;50.58;24.08;;;;;;;-0.56;100.00;101715.44;5087979;28;20044;-49
2023/12/03 00:45:24;;;;;;;53.88;23.25;;;;;;;-0.51;100.00;101716.22;5087971;28;20044;-47
2023/12/03 00:47:54;;;;;;;52.63;23.90;;;;;;;-0.49;100.00;101715.38;5087880;28;20052;-48
2023/12/03 00:50:22;;;;;;;53.45;22.52;;;;;;;-0.54;100.00;101713.69;5083257;28;20082;-47
2023/12/03 00:52:50;;;;;;;54.25;24.63;;;;;;;-0.53;100.00;101717.97;5073111;28;20046;-46
2023/12/03 00:55:18;;;;;;;60.00;25.05;;;;;;;-0.52;100.00;101716.25;5071396;28;20553;-51
2023/12/03 00:57:48;;;;;;;52.42;24.15;;;;;;;-0.51;100.00;101710.22;5069178;28;20060;-48
2023/12/03 01:00:17;;;;;;;55.50;23.25;;;;;;;-0.53;100.00;101715.41;5074185;28;20094;-51
2023/12/03 01:02:48;;;;;;;51.83;22.60;;;;;;;-0.48;100.00;101723.13;5073173;28;20053;-51
2023/12/03 01:05:18;;;;;;;56.15;23.50;;;;;;;-0.49;100.00;101711.09;5070351;28;20516;-47
2023/12/03 01:07:46;;;;;;;57.83;23.50;;;;;;;-0.53;100.00;101717.97;5072452;28;20547;-46
2023/12/03 01:10:15;;;;;;;49.70;21.27;;;;;;;-0.50;100.00;101722.28;5074006;28;20055;-46
2023/12/03 01:12:43;;;;;;;54.70;23.17;;;;;;;-0.50;100.00;101719.69;5074002;28;20052;-47
2023/12/03 01:15:11;;;;;;;49.65;20.42;;;;;;;-0.51;100.00;101718.81;5073986;28;20102;-48
2023/12/03 01:17:40;;;;;;;53.90;21.70;;;;;;;-0.48;100.00;101714.53;5074019;28;20461;-48
2023/12/03 01:20:10;;;;;;;57.05;21.92;;;;;;;-0.45;100.00;101717.06;5073621;28;20041;-47
2023/12/03 01:22:40;;;;;;;55.30;21.13;;;;;;;-0.47;100.00;101721.41;5073475;28;20044;-47
2023/12/03 01:25:08;;;;;;;63.53;22.55;;;;;;;-0.45;100.00;101720.53;5073658;28;20053;-48
2023/12/03 01:27:37;;;;;;;52.63;19.73;;;;;;;-0.44;100.00;101724.81;5073873;28;20052;-46
2023/12/03 01:30:06;;;;;;;46.05;19.33;;;;;;;-0.45;100.00;101724.84;5073383;28;20045;-47
2023/12/03 01:32:34;;;;;;;50.80;20.00;;;;;;;-0.38;100.00;101734.28;5071110;28;20052;-46
2023/12/03 01:35:05;;;;;;;48.65;19.33;;;;;;;-0.43;100.00;101726.53;5068853;28;20167;-46
2023/12/03 01:37:34;;;;;;;53.55;20.10;;;;;;;-0.41;100.00;101734.28;5073287;28;20075;-47
2023/12/03 01:40:04;;;;;;;52.20;19.35;;;;;;;-0.40;100.00;101730.84;5073186;28;20053;-47
2023/12/03 01:42:34;;;;;;;51.00;19.08;;;;;;;-0.38;100.00;101735.16;5070500;28;20147;-47
2023/12/03 01:45:02;;;;;;;50.80;20.65;;;;;;;-0.37;100.00;101731.69;5070502;28;20048;-46
2023/12/03 01:47:32;;;;;;;56.25;20.88;;;;;;;-0.35;100.00;101736.84;5070629;28;20430;-49
2023/12/03 01:50:06;;;;;;;57.88;21.65;;;;;;;-0.37;100.00;101743.75;5068933;28;20131;-47
2023/12/03 01:52:35;;;;;;;53.95;20.98;;;;;;;-0.38;100.00;101742.91;5073278;28;20049;-45
2023/12/03 01:55:06;;;;;;;60.05;21.58;;;;;;;-0.34;100.00;101746.34;5072070;28;20049;-47
2023/12/03 01:57:35;;;;;;;59.10;22.60;;;;;;;-0.32;100.00;101744.59;5069016;28;20051;-48
2023/12/03 02:00:05;;;;;;;63.90;22.60;;;;;;;-0.32;100.00;101742.00;5070028;28;20048;-48
2023/12/03 02:02:34;;;;;;;64.18;21.50;;;;;;;-0.34;100.00;101741.16;5069347;28;20045;-48
2023/12/03 02:05:02;;;;;;;51.28;21.25;;;;;;;-0.31;100.00;101741.16;5070552;28;20048;-47
2023/12/03 02:07:30;;;;;;;61.45;22.52;;;;;;;-0.28;100.00;101745.44;5072884;28;20511;-46
2023/12/03 02:09:59;;;;;;;54.15;21.63;;;;;;;-0.23;100.00;101749.72;5072698;28;20053;-47
2023/12/03 02:12:32;;;;;;;56.90;21.90;;;;;;;-0.25;100.00;101756.59;5071331;28;20053;-50
2023/12/03 02:15:00;;;;;;;50.30;20.95;;;;;;;-0.23;100.00;101754.88;5072426;28;20084;-50
2023/12/03 02:17:29;;;;;;;56.50;21.48;;;;;;;-0.24;100.00;101750.56;5072433;28;20048;-50
2023/12/03 02:19:57;;;;;;;59.60;20.85;;;;;;;-0.22;100.00;101761.78;5072427;28;20089;-47
2023/12/03 02:22:25;;;;;;;57.25;21.50;;;;;;;-0.21;100.00;101753.13;5070529;28;20049;-48
2023/12/03 02:24:55;;;;;;;58.60;23.35;;;;;;;-0.18;100.00;101755.72;5069682;28;20418;-47
2023/12/03 02:27:23;;;;;;;58.22;21.05;;;;;;;-0.17;100.00;101760.00;5067508;28;20090;-47
2023/12/03 02:29:51;;;;;;;58.15;23.00;;;;;;;-0.13;100.00;101760.84;5069978;28;20445;-48
2023/12/03 02:32:19;;;;;;;58.10;22.05;;;;;;;-0.08;100.00;101755.66;5072452;28;20052;-48
2023/12/03 02:34:47;;;;;;;61.47;22.65;;;;;;;-0.09;100.00;101759.97;5069460;28;20052;-46
2023/12/03 02:37:16;;;;;;;58.70;22.42;;;;;;;-0.09;100.00;101759.13;5068550;28;20499;-47
2023/12/03 02:39:44;;;;;;;60.88;22.45;;;;;;;-0.06;100.00;101761.69;5071650;28;20703;-48
2023/12/03 02:42:16;;;;;;;57.78;22.98;;;;;;;-0.02;100.00;101764.22;5072292;28;20040;-46
2023/12/03 02:44:45;;;;;;;56.65;22.50;;;;;;;0.01;100.00;101758.19;5071999;28;20041;-51
2023/12/03 02:47:13;;;;;;;55.22;21.63;;;;;;;0.02;100.00;101762.50;5072074;28;20059;-47
2023/12/03 02:49:41;;;;;;;61.65;22.75;;;;;;;0.05;100.00;101759.03;5072017;28;20049;-47
2023/12/03 02:52:13;;;;;;;58.53;22.58;;;;;;;0.04;100.00;101763.34;5072128;28;20045;-46
2023/12/03 02:54:41;;;;;;;62.15;21.52;;;;;;;0.07;100.00;101758.16;5071727;28;20387;-49
2023/12/03 02:57:10;;;;;;;59.22;23.67;;;;;;;0.10;100.00;101752.09;5066629;28;20075;-47
2023/12/03 02:59:39;;;;;;;59.63;23.23;;;;;;;0.11;100.00;101762.44;5069182;28;20377;-45
2023/12/03 03:02:07;;;;;;;56.03;22.33;;;;;;;0.10;100.00;101757.28;5071750;28;20045;-49
2023/12/03 03:04:35;;;;;;;53.65;21.27;;;;;;;0.11;100.00;101748.63;5071653;28;20689;-46
2023/12/03 03:07:04;;;;;;;59.20;23.17;;;;;;;0.15;100.00;101758.97;5071590;28;20094;-47
2023/12/03 03:09:32;;;;;;;63.83;22.73;;;;;;;0.16;100.00;101757.22;5070449;28;20053;-46
2023/12/03 03:12:00;;;;;;;55.67;23.27;;;;;;;0.13;100.00;101762.41;5071743;28;20499;-48
2023/12/03 03:14:28;;;;;;;50.20;21.30;;;;;;;0.15;100.00;101752.91;5071667;28;20068;-46
2023/12/03 03:16:58;;;;;;;53.38;21.42;;;;;;;0.16;100.00;101768.44;5069860;28;20095;-46
2023/12/03 03:19:26;;;;;;;48.08;20.63;;;;;;;0.19;100.00;101766.69;5068277;28;20059;-48
2023/12/03 03:21:54;;;;;;;53.33;22.17;;;;;;;0.23;100.00;101773.56;5071726;28;20052;-47
2023/12/03 03:24:24;;;;;;;51.72;22.27;;;;;;;0.23;100.00;101769.25;5071776;28;20064;-48
2023/12/03 03:26:52;;;;;;;55.53;22.33;;;;;;;0.25;100.00;101764.06;5069512;28;20044;-50
2023/12/03 03:29:21;;;;;;;45.42;21.05;;;;;;;0.28;100.00;101770.06;5068295;28;20048;-48
2023/12/03 03:31:49;;;;;;;50.22;22.08;;;;;;;0.28;100.00;101766.63;5070990;28;20037;-49
2023/12/03 03:34:18;;;;;;;51.40;23.90;;;;;;;0.29;100.00;101766.59;5071610;28;20127;-49
2023/12/03 03:36:47;;;;;;;47.75;22.75;;;;;;;0.32;100.00;101764.00;5071380;28;20518;-50
2023/12/03 03:39:15;;;;;;;46.95;23.23;;;;;;;0.37;100.00;101770.84;5069633;28;20052;-48
2023/12/03 03:41:43;;;;;;;51.30;23.60;;;;;;;0.36;100.00;101767.44;5067474;28;20052;-48
2023/12/03 03:44:11;;;;;;;49.10;22.80;;;;;;;0.39;100.00;101774.31;5066833;28;20072;-46
2023/12/03 03:46:40;;;;;;;46.83;23.98;;;;;;;0.41;100.00;101772.56;5071059;28;20098;-49
2023/12/03 03:49:11;;;;;;;46.85;24.35;;;;;;;0.41;100.00;101767.38;5071486;28;20045;-46
2023/12/03 03:51:41;;;;;;;53.05;25.85;;;;;;;0.40;100.00;101765.69;5071642;28;20052;-46
2023/12/03 03:54:12;;;;;;;51.00;25.65;;;;;;;0.38;100.00;101770.84;5071524;28;20052;-46
2023/12/03 03:56:46;;;;;;;47.10;24.10;;;;;;;0.40;100.00;101768.28;5071228;28;20055;-48
2023/12/03 03:59:14;;;;;;;47.00;23.67;;;;;;;0.43;100.00;101771.66;5071436;28;20436;-48
2023/12/03 04:01:43;;;;;;;49.60;24.85;;;;;;;0.46;100.00;101776.84;5071194;28;20381;-46
2023/12/03 04:04:12;;;;;;;48.75;24.30;;;;;;;0.43;100.00;101779.44;5069772;28;20048;-47
2023/12/03 04:06:44;;;;;;;45.95;22.77;;;;;;;0.46;100.00;101775.97;5067765;28;20138;-46
2023/12/03 04:09:13;;;;;;;46.77;23.77;;;;;;;0.46;100.00;101774.25;5069767;28;20127;-47
2023/12/03 04:11:41;;;;;;;50.05;25.17;;;;;;;0.47;100.00;101781.13;5071257;28;20467;-47
2023/12/03 04:14:12;;;;;;;45.35;23.73;;;;;;;0.49;100.00;101781.09;5071109;28;20052;-47
2023/12/03 04:16:41;;;;;;;45.42;24.90;;;;;;;0.51;100.00;101787.16;5071513;28;20502;-48
2023/12/03 04:19:09;;;;;;;46.80;24.10;;;;;;;0.49;100.00;101784.59;5071119;28;20396;-46
2023/12/03 04:21:38;;;;;;;44.30;23.58;;;;;;;0.46;100.00;101789.78;5071101;28;20102;-45
2023/12/03 04:24:08;;;;;;;43.95;23.55;;;;;;;0.46;100.00;101789.78;5070947;28;20049;-48
2023/12/03 04:26:36;;;;;;;44.83;25.35;;;;;;;0.47;100.00;101795.81;5073503;28;20504;-47
2023/12/03 04:29:05;;;;;;;42.63;22.95;;;;;;;0.49;100.00;101797.53;5074757;28;20044;-46
2023/12/03 04:31:33;;;;;;;44.30;24.05;;;;;;;0.50;100.00;101799.25;5073400;28;20400;-49
2023/12/03 04:34:01;;;;;;;39.03;21.73;;;;;;;0.50;100.00;101799.25;5074743;28;20048;-47
2023/12/03 04:36:29;;;;;;;42.28;23.75;;;;;;;0.54;100.00;101799.22;5074789;28;20067;-49
2023/12/03 04:39:01;;;;;;;39.15;22.23;;;;;;;0.54;100.00;101799.22;5073197;28;20048;-47
2023/12/03 04:41:36;;;;;;;41.08;23.00;;;;;;;0.55;100.00;101795.75;5074522;28;20105;-48
2023/12/03 04:44:04;;;;;;;39.67;21.63;;;;;;;0.56;100.00;101798.34;5074294;28;20044;-46
2023/12/03 04:46:32;;;;;;;38.88;20.17;;;;;;;0.54;100.00;101792.28;5073165;28;20146;-47
2023/12/03 04:49:01;;;;;;;42.95;22.05;;;;;;;0.57;100.00;101786.25;5071616;28;20052;-49
2023/12/03 04:51:30;;;;;;;38.13;20.88;;;;;;;0.55;100.00;101796.59;5071345;28;20110;-48
2023/12/03 04:53:58;;;;;;;38.35;21.48;;;;;;;0.54;100.00;101797.47;5074282;28;20131;-50
2023/12/03 04:56:29;;;;;;;37.20;21.27;;;;;;;0.54;100.00;101794.03;5074075;28;20051;-46
2023/12/03 04:58:58;;;;;;;36.25;20.88;;;;;;;0.54;100.00;101806.97;5074459;28;20068;-48
2023/12/03 05:01:26;;;;;;;37.35;20.85;;;;;;;0.56;100.00;101808.69;5074282;28;20053;-47
2023/12/03 05:03:55;;;;;;;36.60;20.98;;;;;;;0.57;100.00;101805.22;5074021;28;20411;-45
2023/12/03 05:06:23;;;;;;;33.42;18.95;;;;;;;0.58;100.00;101804.34;5070293;28;20135;-46
2023/12/03 05:08:51;;;;;;;37.35;20.20;;;;;;;0.60;100.00;101806.91;5072388;28;20098;-46
2023/12/03 05:11:19;;;;;;;34.95;19.33;;;;;;;0.57;100.00;101804.34;5074047;28;20040;-46
2023/12/03 05:13:47;;;;;;;36.72;19.70;;;;;;;0.58;100.00;101806.94;5071777;28;20056;-48
2023/12/03 05:16:18;;;;;;;36.55;19.67;;;;;;;0.59;100.00;101807.81;5070713;28;20037;-49
2023/12/03 05:18:46;;;;;;;32.40;18.33;;;;;;;0.59;100.00;101813.84;5071333;28;20053;-46
2023/12/03 05:21:14;;;;;;;31.00;18.60;;;;;;;0.58;100.00;101819.88;5073597;28;20044;-48
2023/12/03 05:23:42;;;;;;;33.50;18.45;;;;;;;0.57;100.00;101812.13;5072093;28;20127;-47
2023/12/03 05:26:11;;;;;;;31.23;18.55;;;;;;;0.56;100.00;101813.00;5069231;28;20064;-47
2023/12/03 05:28:39;;;;;;;32.92;17.52;;;;;;;0.57;100.00;101822.47;5073058;28;20056;-46
2023/12/03 05:31:08;;;;;;;33.28;18.33;;;;;;;0.57;100.00;101832.84;5073586;28;20040;-47
2023/12/03 05:33:37;;;;;;;34.50;18.75;;;;;;;0.58;100.00;101830.22;5073523;28;20040;-46
2023/12/03 05:36:06;;;;;;;27.33;16.95;;;;;;;0.59;100.00;101829.38;5073252;28;20083;-48
2023/12/03 05:38:38;;;;;;;33.28;17.40;;;;;;;0.58;100.00;101837.16;5073356;28;20549;-47
2023/12/03 05:41:07;;;;;;;33.42;17.45;;;;;;;0.59;100.00;101833.69;5072996;28;20090;-48
2023/12/03 05:43:35;;;;;;;28.08;16.10;;;;;;;0.55;100.00;101830.25;5072891;28;20076;-47
2023/12/03 05:46:04;;;;;;;34.15;18.92;;;;;;;0.53;100.00;101834.59;5071429;28;20056;-53
2023/12/03 05:48:32;;;;;;;31.02;17.33;;;;;;;0.52;100.00;101837.19;5070708;28;20048;-54
2023/12/03 05:51:01;;;;;;;29.88;16.60;;;;;;;0.54;100.00;101830.28;5072001;28;20045;-53
2023/12/03 05:53:30;;;;;;;29.33;17.38;;;;;;;0.55;100.00;101832.84;5073337;28;20094;-49
2023/12/03 05:55:58;;;;;;;31.83;16.88;;;;;;;0.55;100.00;101827.69;5073138;28;20045;-53
2023/12/03 05:58:26;;;;;;;31.60;17.42;;;;;;;0.46;100.00;101838.97;5073244;28;20053;-52
2023/12/03 06:00:55;;;;;;;30.65;17.38;;;;;;;0.41;100.00;101839.84;5072020;28;20072;-52
2023/12/03 06:03:26;;;;;;;33.08;18.08;;;;;;;0.41;100.00;101842.44;5069920;28;20049;-51
2023/12/03 06:05:54;;;;;;;32.83;17.48;;;;;;;0.40;100.00;101841.59;5071854;28;20042;-51
2023/12/03 06:08:24;;;;;;;35.75;18.50;;;;;;;0.35;100.00;101835.56;5073019;28;20530;-52
2023/12/03 06:10:52;;;;;;;30.52;17.77;;;;;;;0.33;100.00;101840.78;5068906;28;20106;-53
2023/12/03 06:13:21;;;;;;;31.02;17.25;;;;;;;0.28;100.00;101842.53;5069184;28;20049;-53
2023/12/03 06:15:49;;;;;;;31.10;17.60;;;;;;;0.26;100.00;101844.28;5071594;28;20400;-50
2023/12/03 06:18:17;;;;;;;33.65;16.83;;;;;;;0.23;100.00;101841.72;5072764;28;20384;-53
2023/12/03 06:20:45;;;;;;;34.58;16.92;;;;;;;0.20;100.00;101836.53;5072688;28;20063;-53
2023/12/03 06:23:13;;;;;;;31.58;16.52;;;;;;;0.19;100.00;101839.97;5072786;28;20036;-47
2023/12/03 06:25:46;;;;;;;32.08;17.60;;;;;;;0.16;100.00;101838.31;5071311;28;20045;-46
2023/12/03 06:28:15;;;;;;;33.88;17.63;;;;;;;0.12;100.00;101841.78;5072660;28;20087;-45
2023/12/03 06:30:43;;;;;;;30.77;17.60;;;;;;;0.09;100.00;101841.78;5072155;28;20503;-46
2023/12/03 06:33:11;;;;;;;31.33;17.45;;;;;;;0.05;100.00;101847.81;5072299;28;20052;-46
2023/12/03 06:35:39;;;;;;;33.63;17.35;;;;;;;0.03;100.00;101848.69;5072306;28;20044;-48
2023/12/03 06:38:07;;;;;;;33.25;17.80;;;;;;;0.02;100.00;101855.63;5072224;28;20547;-47
2023/12/03 06:40:35;;;;;;;33.60;18.88;;;;;;;-0.05;100.00;101846.16;5072209;28;20090;-47
2023/12/03 06:43:04;;;;;;;35.88;18.90;;;;;;;-0.10;100.00;101847.91;5070932;28;20521;-46
2023/12/03 06:45:33;;;;;;;37.78;18.95;;;;;;;-0.16;100.00;101853.97;5072458;28;20036;-48
2023/12/03 06:48:01;;;;;;;38.17;19.70;;;;;;;-0.22;100.00;101860.03;5071581;28;20558;-47
2023/12/03 06:50:29;;;;;;;35.28;20.00;;;;;;;-0.20;100.00;101852.28;5072426;28;20131;-47
2023/12/03 06:52:58;;;;;;;39.92;19.40;;;;;;;-0.19;100.00;101852.25;5071982;28;20521;-46
2023/12/03 06:55:26;;;;;;;38.28;19.42;;;;;;;-0.23;100.00;101858.31;5069904;28;20040;-46
2023/12/03 06:57:54;;;;;;;36.75;18.38;;;;;;;-0.26;100.00;101858.34;5068465;28;20040;-49
2023/12/03 07:00:24;;;;;;;35.60;18.52;;;;;;;-0.26;100.00;101858.34;5070011;28;20101;-46
2023/12/03 07:02:52;;;;;;;38.45;20.40;;;;;;;-0.39;100.00;101865.25;5071861;28;20044;-46
2023/12/03 07:05:20;;;;;;;45.88;21.88;;;;;;;-0.42;100.00;101859.25;5070972;28;20063;-47
2023/12/03 07:07:51;;;;;;;39.55;19.27;;;;;;;-0.46;100.00;101854.94;5069132;28;20564;-46
2023/12/03 07:10:19;;;;;;;41.30;19.92;;;;;;;-0.51;100.00;101852.38;5070417;28;20060;-46
2023/12/03 07:12:47;;;;;;;38.15;19.73;;;;;;;-0.51;100.00;101862.72;5071722;28;20454;-47
2023/12/03 07:15:19;;;;;;;40.08;19.80;;;;;;;-0.55;100.00;101859.25;5070563;28;20064;-46
2023/12/03 07:17:49;;;;;;;48.05;22.35;;;;;;;-0.52;100.00;101860.97;5071757;28;20392;-46
2023/12/03 07:20:18;;;;;;;42.28;21.42;;;;;;;-0.61;100.00;101874.78;5071616;28;20137;-48
2023/12/03 07:22:46;;;;;;;38.38;20.48;;;;;;;-0.65;100.00;101880.00;5071812;28;20522;-47
2023/12/03 07:25:16;;;;;;;41.10;20.83;;;;;;;-0.72;100.00;101874.81;5071530;28;20043;-47
2023/12/03 07:27:45;;;;;;;37.78;20.05;;;;;;;-0.71;100.00;101881.72;5071510;28;20147;-50
2023/12/03 07:30:13;;;;;;;42.42;21.35;;;;;;;-0.75;100.00;101874.84;5071690;28;20051;-49
2023/12/03 07:32:42;;;;;;;39.80;20.33;;;;;;;-0.77;100.00;101880.84;5070502;28;20037;-50
2023/12/03 07:35:11;;;;;;;38.78;20.60;;;;;;;-0.83;100.00;101893.75;5068296;28;20094;-47
2023/12/03 07:37:42;;;;;;;38.78;19.88;;;;;;;-0.84;100.00;101889.47;5069316;28;20048;-47
2023/12/03 07:40:10;;;;;;;43.35;20.67;;;;;;;-0.85;100.00;101893.78;5070552;28;20139;-53
2023/12/03 07:42:39;;;;;;;42.97;22.20;;;;;;;-0.91;100.00;101894.63;5067696;28;20131;-53
2023/12/03 07:45:09;;;;;;;44.20;21.92;;;;;;;-0.94;100.00;101897.22;5068739;28;20052;-54
2023/12/03 07:47:37;;;;;;;45.38;19.95;;;;;;;-1.05;100.00;101907.56;5067471;28;20131;-48
2023/12/03 07:50:06;;;;;;;37.97;19.58;;;;;;;-1.03;100.00;101900.66;5070248;28;20056;-48
2023/12/03 07:52:36;;;;;;;39.17;19.52;;;;;;;-1.06;100.00;101905.00;5071511;28;20048;-48
2023/12/03 07:55:06;;;;;;;41.47;19.40;;;;;;;-1.12;100.00;101898.06;5071504;28;20049;-49
2023/12/03 07:57:34;;;;;;;38.42;19.10;;;;;;;-1.13;100.00;101908.41;5071431;28;20127;-48
2023/12/03 08:00:04;;;;;;;39.88;19.58;;;;;;;-1.13;100.00;101909.28;5071311;28;20064;-48
2023/12/03 08:02:33;;;;;;;41.05;19.65;;;;;;;-1.19;100.00;101898.94;5075424;28;20057;-47
2023/12/03 08:05:01;;;;;;;45.22;21.45;;;;;;;-1.18;100.00;101907.56;5075591;28;20559;-50
2023/12/03 08:07:29;;;;;;;38.58;18.70;;;;;;;-1.21;100.00;101911.84;5073734;28;20499;-46
2023/12/03 08:09:59;;;;;;;42.22;19.35;;;;;;;-1.23;100.00;101907.53;5075061;28;20041;-47
2023/12/03 08:12:28;;;;;;;39.55;18.98;;;;;;;-1.22;100.00;101910.13;5075132;28;20040;-47
2023/12/03 08:14:57;;;;;;;40.88;19.52;;;;;;;-1.20;100.00;101907.53;5075060;28;20044;-47
2023/12/03 08:17:25;;;;;;;39.80;19.60;;;;;;;-1.18;100.00;101910.16;5074929;28;20060;-47
2023/12/03 08:19:53;;;;;;;39.35;19.42;;;;;;;-1.16;100.00;101911.84;5074900;28;20060;-46
2023/12/03 08:22:21;;;;;;;42.47;17.80;;;;;;;-1.14;100.00;101911.88;5074795;28;20411;-47
2023/12/03 08:24:52;;;;;;;40.63;19.10;;;;;;;-1.03;100.00;101912.72;5074828;28;20072;-48
2023/12/03 08:27:22;;;;;;;38.35;18.42;;;;;;;-1.09;100.00;101915.28;5074955;28;20562;-45
2023/12/03 08:29:50;;;;;;;37.42;17.92;;;;;;;-0.95;100.00;101915.31;5074826;28;20045;-46
2023/12/03 08:32:19;;;;;;;42.35;20.10;;;;;;;-0.87;100.00;101914.44;5074604;28;20062;-47
2023/12/03 08:34:47;;;;;;;39.95;19.10;;;;;;;-0.74;100.00;101911.84;5073409;28;20044;-46
2023/12/03 08:37:15;;;;;;;41.10;19.17;;;;;;;-0.72;100.00;101908.41;5074598;28;20049;-47
2023/12/03 08:39:46;;;;;;;39.72;17.10;;;;;;;-0.69;100.00;101912.72;5073117;28;20080;-49
2023/12/03 08:42:16;;;;;;;37.03;18.25;;;;;;;-0.64;100.00;101917.84;5074690;28;20080;-46
2023/12/03 08:44:45;;;;;;;38.92;18.30;;;;;;;-0.61;100.00;101921.31;5074419;28;20036;-49
2023/12/03 08:47:15;;;;;;;38.92;17.77;;;;;;;-0.50;100.00;101929.06;5073333;28;20052;-48
2023/12/03 08:49:45;;;;;;;34.45;17.13;;;;;;;-0.41;100.00;101931.63;5074142;28;20053;-47
2023/12/03 08:52:15;;;;;;;45.05;18.83;;;;;;;-0.35;100.00;101938.50;5074079;28;20048;-51
2023/12/03 08:54:46;;;;;;;31.90;15.68;;;;;;;-0.29;100.00;101938.47;5074469;28;20044;-47
2023/12/03 08:57:14;;;;;;;36.50;17.77;;;;;;;-0.24;100.00;101928.97;5069675;28;20124;-49
2023/12/03 08:59:43;;;;;;;37.20;19.02;;;;;;;-0.20;100.00;101935.03;5071155;28;20045;-49
2023/12/03 09:02:12;;;;;;;32.60;15.48;;;;;;;-0.21;100.00;101938.47;5073103;28;20060;-46
2023/12/03 09:04:43;;;;;;;33.88;16.20;;;;;;;-0.19;100.00;101931.56;5074337;28;20187;-46
2023/12/03 09:07:11;;;;;;;34.15;16.23;;;;;;;-0.17;100.00;101933.25;5074387;28;20049;-46
2023/12/03 09:09:39;;;;;;;34.70;16.60;;;;;;;-0.14;100.00;101928.97;5073948;28;20107;-47
2023/12/03 09:12:08;;;;;;;35.45;16.35;;;;;;;-0.10;100.00;101935.84;5073301;28;20483;-50
2023/12/03 09:14:36;;;;;;;33.40;14.98;;;;;;;-0.04;100.00;101940.97;5074028;28;20402;-50
2023/12/03 09:17:05;;;;;;;35.75;17.02;;;;;;;0.02;100.00;101945.31;5073978;28;20056;-50
2023/12/03 09:19:34;;;;;;;32.72;16.08;;;;;;;0.03;100.00;101953.06;5074082;28;20048;-50
2023/12/03 09:22:03;;;;;;;35.20;15.65;;;;;;;0.05;100.00;101946.13;5073721;28;20106;-46
2023/12/03 09:24:32;;;;;;;33.80;15.63;;;;;;;0.15;100.00;101946.94;5073358;28;20036;-46
2023/12/03 09:27:00;;;;;;;35.00;15.88;;;;;;;0.19;100.00;101950.41;5073786;28;20564;-46
2023/12/03 09:29:28;;;;;;;30.98;14.98;;;;;;;0.17;100.00;101945.22;5073806;28;20396;-47
2023/12/03 09:31:59;;;;;;;31.80;15.65;;;;;;;0.29;100.00;101946.91;5073742;28;20105;-49
2023/12/03 09:34:30;;;;;;;31.50;15.20;;;;;;;0.37;100.00;101950.31;5073621;28;20515;-46
2023/12/03 09:36:59;;;;;;;30.85;14.38;;;;;;;0.36;100.00;101946.00;5073928;28;20055;-46
2023/12/03 09:39:28;;;;;;;29.27;14.52;;;;;;;0.39;100.00;101956.34;5072031;28;20057;-46
2023/12/03 09:42:01;;;;;;;28.13;13.65;;;;;;;0.41;100.00;101953.72;5073425;28;20059;-45
2023/12/03 09:44:39;;;;;;;30.10;13.30;;;;;;;0.52;100.00;101953.69;5073527;28;20033;-47
2023/12/03 09:47:07;;;;;;;28.15;13.75;;;;;;;0.52;100.00;101951.97;5069794;28;20056;-46
2023/12/03 09:49:38;;;;;;;30.05;14.55;;;;;;;0.57;100.00;101954.53;5069830;28;20051;-45
2023/12/03 09:52:08;;;;;;;26.65;14.77;;;;;;;0.61;100.00;101943.28;5073590;28;20103;-46
2023/12/03 09:54:38;;;;;;;29.75;14.13;;;;;;;0.58;100.00;101948.47;5073362;28;20478;-47
2023/12/03 09:57:10;;;;;;;27.50;12.63;;;;;;;0.64;100.00;101951.03;5073216;28;20053;-47
2023/12/03 09:59:45;;;;;;;29.67;13.88;;;;;;;0.67;100.00;101951.88;5072655;28;20056;-47
2023/12/03 10:02:14;;;;;;;27.33;13.48;;;;;;;0.77;100.00;101949.22;5072818;28;20056;-46
2023/12/03 10:04:43;;;;;;;27.60;14.23;;;;;;;0.74;100.00;101946.66;5073268;28;20091;-46
2023/12/03 10:07:15;;;;;;;31.23;14.23;;;;;;;0.71;100.00;101942.38;5073134;28;20048;-47
2023/12/03 10:09:44;;;;;;;26.95;13.00;;;;;;;0.64;100.00;101941.53;5073140;28;20048;-47
2023/12/03 10:12:17;;;;;;;31.02;15.00;;;;;;;0.62;100.00;101948.44;5072769;28;20123;-47
2023/12/03 10:14:47;;;;;;;28.25;13.52;;;;;;;0.66;100.00;101934.59;5072975;28;20053;-47
2023/12/03 10:17:19;;;;;;;30.73;15.40;;;;;;;0.62;100.00;101926.88;5072937;28;20051;-46
2023/12/03 10:19:48;;;;;;;26.70;13.50;;;;;;;0.59;100.00;101929.50;5072847;28;20071;-48
2023/12/03 10:22:17;;;;;;;26.70;14.57;;;;;;;0.54;100.00;101931.25;5072841;28;20036;-50
2023/12/03 10:24:47;;;;;;;24.90;12.93;;;;;;;0.63;100.00;101939.81;5071819;28;20037;-48
2023/12/03 10:27:16;;;;;;;26.17;13.73;;;;;;;0.67;100.00;101932.91;5072682;28;20056;-48
2023/12/03 10:29:47;;;;;;;26.70;13.82;;;;;;;0.63;100.00;101934.63;5071295;28;20357;-46
2023/12/03 10:32:15;;;;;;;23.80;12.63;;;;;;;0.71;100.00;101934.59;5072650;28;20050;-50
2023/12/03 10:34:49;;;;;;;27.98;14.07;;;;;;;0.67;100.00;101938.91;5072531;28;20074;-49
2023/12/03 10:37:18;;;;;;;25.65;12.52;;;;;;;0.73;100.00;101929.41;5072596;28;20058;-48
2023/12/03 10:39:49;;;;;;;;;;;;;;;0.70;100.00;101926.84;5072937;28;20044;-47
2023/12/03 10:42:17;;;;;;;26.90;13.15;;;;;;;0.69;100.00;101925.97;5072411;28;20369;-46
2023/12/03 10:44:45;;;;;;;27.23;13.80;;;;;;;0.73;100.00;101926.81;5072470;28;20044;-47
2023/12/03 10:47:14;;;;;;;25.38;12.77;;;;;;;0.66;100.00;101913.88;5072370;28;20522;-50
2023/12/03 10:49:42;;;;;;;25.98;12.70;;;;;;;0.73;100.00;101919.88;5072305;28;20048;-46
2023/12/03 10:52:10;;;;;;;25.20;12.75;;;;;;;0.81;100.00;101919.84;5072052;28;20049;-47
2023/12/03 10:54:40;;;;;;;24.83;12.75;;;;;;;0.80;100.00;101920.72;5072244;28;20041;-46
2023/12/03 10:57:09;;;;;;;27.08;13.30;;;;;;;0.83;100.00;101916.38;5072458;28;20041;-46
2023/12/03 10:59:41;;;;;;;27.48;13.38;;;;;;;0.83;100.00;101913.78;5071943;28;20044;-45
2023/12/03 11:02:11;;;;;;;25.80;13.40;;;;;;;0.96;100.00;101911.94;5071899;28;20067;-46
2023/12/03 11:04:48;;;;;;;26.42;13.13;;;;;;;0.93;100.00;101906.81;5071972;28;20048;-55
2023/12/03 11:07:19;;;;;;;26.83;13.30;;;;;;;0.96;100.00;101903.31;5071892;28;20052;-54
2023/12/03 11:09:50;;;;;;;27.08;13.00;;;;;;;0.99;100.00;101904.16;5072151;28;20083;-54
2023/12/03 11:12:21;;;;;;;23.08;12.52;;;;;;;1.04;100.00;101901.53;5072043;28;20048;-56
2023/12/03 11:14:50;;;;;;;25.15;12.68;;;;;;;1.05;100.00;101900.66;5068731;28;20406;-53